createdAt,value
2017-04-13T10:01:51.315Z,15.23
2017-04-13T10:02:51.024Z,15.08
2017-04-13T10:03:51.061Z,15.27
2017-04-13T10:04:51.103Z,15.26
2017-04-13T10:05:51.133Z,15.23
2017-04-13T10:06:51.172Z,15.05
2017-04-13T10:07:51.205Z,14.97
2017-04-13T10:08:51.242Z,14.75
2017-04-13T10:09:51.281Z,14.26
2017-04-13T10:10:51.315Z,14.01
2017-04-13T10:11:51.326Z,13.6
2017-04-13T10:12:51.373Z,13.35
2017-04-13T10:13:51.413Z,12.94
2017-04-13T10:14:51.445Z,12.78
2017-04-13T10:15:51.473Z,12.7
2017-04-13T10:16:51.508Z,12.63
2017-04-13T10:17:51.548Z,12.8
2017-04-13T10:18:51.566Z,13.09
2017-04-13T10:19:51.612Z,13.75
2017-04-13T10:20:51.637Z,15.35
2017-04-13T10:21:51.682Z,17.24
2017-04-13T10:22:51.718Z,18.96
2017-04-13T10:23:51.748Z,20.42
2017-04-13T10:24:51.766Z,20.9
2017-04-13T10:25:51.814Z,20.38
2017-04-13T10:26:51.853Z,19.6
2017-04-13T10:27:51.886Z,18.56
2017-04-13T10:28:51.913Z,18.38
2017-04-13T10:29:51.957Z,19.23
2017-04-13T10:30:51.985Z,20.44
2017-04-13T10:31:52.017Z,21.53
2017-04-13T10:32:52.059Z,22.59
2017-04-13T10:33:52.078Z,23.29
2017-04-13T10:34:52.120Z,23.82
2017-04-13T10:35:52.153Z,24.07
2017-04-13T10:36:52.187Z,24.52
2017-04-13T10:37:52.212Z,25.27
2017-04-13T10:38:52.264Z,25.86
2017-04-13T10:39:52.290Z,26.34
2017-04-13T10:40:52.330Z,25.32
2017-04-13T10:41:52.365Z,23.25
2017-04-13T10:42:52.392Z,21.36
2017-04-13T10:43:52.438Z,19.93
2017-04-13T10:44:52.470Z,19.17
2017-04-13T10:45:52.519Z,18.56
2017-04-13T10:46:52.540Z,18.24
2017-04-13T10:47:52.563Z,18.53
2017-04-13T10:48:52.609Z,19.6
2017-04-13T10:49:52.644Z,20.93
2017-04-13T10:50:52.673Z,21.58
2017-04-13T10:51:52.718Z,22.14
2017-04-13T10:52:52.754Z,22.52
2017-04-13T10:53:52.798Z,22.22
2017-04-13T10:54:52.823Z,21.43
2017-04-13T10:55:52.857Z,20.4
2017-04-13T10:56:52.894Z,19.38
2017-04-13T10:57:52.923Z,18.44
2017-04-13T10:58:52.972Z,17.36
2017-04-13T10:59:53.019Z,16.73
2017-04-13T11:00:53.033Z,16.3
2017-04-13T11:01:53.077Z,16.22
2017-04-13T11:02:53.108Z,16.25
2017-04-13T11:03:53.144Z,16.92
2017-04-13T11:04:53.178Z,17.6
2017-04-13T11:05:53.260Z,17.88
2017-04-13T11:06:53.254Z,17.92
2017-04-13T11:07:53.277Z,17.63
2017-04-13T11:08:53.315Z,17.36
2017-04-13T11:09:53.345Z,17.49
2017-04-13T11:10:53.378Z,18.03
2017-04-13T11:11:53.427Z,19.42
2017-04-13T11:12:53.452Z,20.49
2017-04-13T11:13:53.476Z,21.06
2017-04-13T11:14:53.526Z,21.21
2017-04-13T11:15:53.562Z,20.94
2017-04-13T11:16:53.585Z,20.38
2017-04-13T11:17:53.630Z,20.34
2017-04-13T11:18:53.661Z,20.34
2017-04-13T11:19:53.688Z,20.34
2017-04-13T11:20:53.721Z,20.05
2017-04-13T11:21:53.774Z,19.67
2017-04-13T11:22:53.800Z,19.31
2017-04-13T11:23:53.821Z,18.94
2017-04-13T11:24:53.884Z,18.57
2017-04-13T11:25:53.908Z,18.01
2017-04-13T11:26:53.945Z,17.76
2017-04-13T11:27:53.983Z,17.35
2017-04-13T11:28:54.014Z,16.88
2017-04-13T11:29:54.053Z,16.45
2017-04-13T11:30:54.086Z,16.17
2017-04-13T11:31:54.121Z,15.86
2017-04-13T11:32:54.153Z,15.83
2017-04-13T11:33:54.177Z,15.74
2017-04-13T11:34:54.218Z,15.99
2017-04-13T11:35:54.250Z,16.76
2017-04-13T11:36:54.282Z,17.28
2017-04-13T11:37:54.323Z,17.84
2017-04-13T11:38:54.357Z,18.1
2017-04-13T11:39:54.443Z,18.49
2017-04-13T11:40:54.428Z,19.02
2017-04-13T11:41:54.464Z,19.7
2017-04-13T11:42:54.495Z,20.34
2017-04-13T11:43:54.523Z,20.71
2017-04-13T11:44:54.565Z,21.23
2017-04-13T11:45:54.602Z,21.23
2017-04-13T11:46:54.621Z,20.68
2017-04-13T11:47:54.671Z,20.11
2017-04-13T11:48:54.702Z,19.42
2017-04-13T11:49:54.730Z,18.78
2017-04-13T11:50:54.780Z,18.38
2017-04-13T11:51:54.804Z,17.9
2017-04-13T11:52:54.833Z,17.4
2017-04-13T11:53:54.876Z,17.06
2017-04-13T11:54:54.911Z,16.74
2017-04-13T11:55:54.945Z,16.51
2017-04-13T11:56:54.983Z,16.39
2017-04-13T11:57:55.015Z,16.36
2017-04-13T11:58:55.043Z,16.21
2017-04-13T11:59:55.078Z,16.25
2017-04-13T12:00:55.115Z,16.13
2017-04-13T12:01:55.147Z,15.93
2017-04-13T12:02:55.178Z,15.88
2017-04-13T12:03:55.213Z,15.68
2017-04-13T12:04:55.248Z,15.67
2017-04-13T12:05:55.280Z,15.73
2017-04-13T12:06:55.319Z,15.86
2017-04-13T12:07:55.357Z,15.95
2017-04-13T12:08:55.381Z,16.18
2017-04-13T12:09:55.423Z,16.22
2017-04-13T12:10:55.456Z,16.27
2017-04-13T12:11:55.480Z,16.27
2017-04-13T12:12:55.520Z,16.26
2017-04-13T12:13:55.564Z,16.3
2017-04-13T12:14:55.589Z,16.13
2017-04-13T12:15:55.622Z,16.02
2017-04-13T12:16:55.657Z,15.98
2017-04-13T12:17:55.686Z,15.88
2017-04-13T12:18:55.725Z,15.88
2017-04-13T12:19:55.760Z,15.7
2017-04-13T12:20:55.793Z,15.58
2017-04-13T12:21:55.820Z,15.19
2017-04-13T12:22:55.860Z,14.89
2017-04-13T12:23:55.888Z,14.61
2017-04-13T12:24:55.928Z,14.44
2017-04-13T12:25:55.964Z,14.19
2017-04-13T12:26:55.994Z,14.06
2017-04-13T12:27:56.025Z,13.73
2017-04-13T12:28:56.058Z,13.54
2017-04-13T12:29:56.100Z,13.36
2017-04-13T12:30:56.130Z,13.16
2017-04-13T12:31:56.159Z,13.02
2017-04-13T12:32:56.196Z,12.96
2017-04-13T12:33:56.222Z,12.98
2017-04-13T12:34:56.254Z,12.83
2017-04-13T12:35:56.286Z,12.65
2017-04-13T12:36:56.331Z,12.71
2017-04-13T12:37:56.408Z,12.65
2017-04-13T12:38:56.384Z,12.52
2017-04-13T12:39:56.423Z,12.34
2017-04-13T12:40:56.662Z,12.2
2017-04-13T12:41:56.499Z,12.05
2017-04-13T12:42:56.524Z,11.88
2017-04-13T12:43:56.547Z,12
2017-04-13T12:44:56.585Z,11.89
2017-04-13T12:45:56.618Z,11.85
2017-04-13T12:46:56.649Z,11.86
2017-04-13T12:47:56.683Z,11.95
2017-04-13T12:48:56.718Z,12
2017-04-13T12:49:56.741Z,12.08
2017-04-13T12:50:56.779Z,12.25
2017-04-13T12:51:56.809Z,12.47
2017-04-13T12:52:56.840Z,12.63
2017-04-13T12:53:56.881Z,12.96
2017-04-13T12:54:56.908Z,13.17
2017-04-13T12:55:56.948Z,13.45
2017-04-13T12:56:56.969Z,13.65
2017-04-13T12:57:56.989Z,13.91
2017-04-13T12:58:57.036Z,14.16
2017-04-13T12:59:57.071Z,14.13
2017-04-13T13:00:57.104Z,14.08
2017-04-13T13:01:57.143Z,14.06
2017-04-13T13:02:57.140Z,14.01
2017-04-13T13:03:57.194Z,13.9
2017-04-13T13:04:57.232Z,13.86
2017-04-13T13:05:57.266Z,13.69
2017-04-13T13:06:57.443Z,13.66
2017-04-13T13:07:57.323Z,13.54
2017-04-13T13:08:57.370Z,13.32
2017-04-13T13:09:57.400Z,13.39
2017-04-13T13:10:57.422Z,13.17
2017-04-13T13:11:57.562Z,13.16
2017-04-13T13:12:57.502Z,13.16
2017-04-13T13:13:57.527Z,13.1
2017-04-13T13:14:57.557Z,13.09
2017-04-13T13:15:57.593Z,13.1
2017-04-13T13:16:57.618Z,13.1
2017-04-13T13:17:57.659Z,13.16
2017-04-13T13:18:57.692Z,13.02
2017-04-13T13:19:57.714Z,13.01
2017-04-13T13:20:57.757Z,13.06
2017-04-13T13:21:57.790Z,13.07
2017-04-13T13:22:57.808Z,13.09
2017-04-13T13:23:57.848Z,13.13
2017-04-13T13:24:57.888Z,13.19
2017-04-13T13:25:57.912Z,13.37
2017-04-13T13:26:57.951Z,13.44
2017-04-13T13:27:57.978Z,13.55
2017-04-13T13:28:58.011Z,13.66
2017-04-13T13:29:58.049Z,13.7
2017-04-13T13:30:58.078Z,13.9
2017-04-13T13:31:58.104Z,14.05
2017-04-13T13:32:58.133Z,14.08
2017-04-13T13:33:58.170Z,14.26
2017-04-13T13:34:58.213Z,14.44
2017-04-13T13:35:58.241Z,14.53
2017-04-13T13:36:58.272Z,14.6
2017-04-13T13:37:58.305Z,14.64
2017-04-13T13:38:58.340Z,14.53
2017-04-13T13:39:58.371Z,14.45
2017-04-13T13:40:58.407Z,14.45
2017-04-13T13:41:58.440Z,14.16
2017-04-13T13:42:58.474Z,14.12
2017-04-13T13:43:58.503Z,14.03
2017-04-13T13:44:58.541Z,13.87
2017-04-13T13:45:58.573Z,13.78
2017-04-13T13:46:58.606Z,13.68
2017-04-13T13:47:58.633Z,13.81
2017-04-13T13:48:58.654Z,13.94
2017-04-13T13:49:58.877Z,14.11
2017-04-13T13:50:58.775Z,14.23
2017-04-13T13:51:58.765Z,14.39
2017-04-13T13:52:58.977Z,14.46
2017-04-13T13:53:58.839Z,14.44
2017-04-13T13:54:58.912Z,14.34
2017-04-13T13:55:58.905Z,14.26
2017-04-13T13:56:58.932Z,14.12
2017-04-13T13:57:59.216Z,13.95
2017-04-13T13:58:59.000Z,13.76
2017-04-13T13:59:59.032Z,13.6
2017-04-13T14:00:59.051Z,13.53
2017-04-13T14:01:59.117Z,13.37
2017-04-13T14:02:59.486Z,13.24
2017-04-13T14:03:59.171Z,13.24
2017-04-13T14:04:59.204Z,13.19
2017-04-13T14:05:59.234Z,13.17
2017-04-13T14:06:59.260Z,13.14
2017-04-13T14:07:59.287Z,13.21
2017-04-13T14:08:59.362Z,13.35
2017-04-13T14:09:59.350Z,13.47
2017-04-13T14:10:59.384Z,13.68
2017-04-13T14:11:59.428Z,13.87
2017-04-13T14:12:59.456Z,14.06
2017-04-13T14:13:59.480Z,14.26
2017-04-13T14:14:59.514Z,14.49
2017-04-13T14:15:59.556Z,14.61
2017-04-13T14:16:59.585Z,14.7
2017-04-13T14:17:59.618Z,14.48
2017-04-13T14:18:59.649Z,14.36
2017-04-13T14:19:59.684Z,14.16
2017-04-13T14:20:59.751Z,14.11
2017-04-13T14:21:59.755Z,14.01
2017-04-13T14:22:59.784Z,13.88
2017-04-13T14:23:59.811Z,13.86
2017-04-13T14:24:59.905Z,13.66
2017-04-13T14:25:59.883Z,13.63
2017-04-13T14:26:59.906Z,13.48
2017-04-13T14:27:59.954Z,13.35
2017-04-13T14:28:59.973Z,13.29
2017-04-13T14:30:00.012Z,13.37
2017-04-13T14:31:00.048Z,13.29
2017-04-13T14:32:00.081Z,13.17
2017-04-13T14:33:00.114Z,13.21
2017-04-13T14:34:00.150Z,13.17
2017-04-13T14:35:00.179Z,13.16
2017-04-13T14:36:00.213Z,13.25
2017-04-13T14:37:00.244Z,13.24
2017-04-13T14:38:00.276Z,13.19
2017-04-13T14:39:00.456Z,13.09
2017-04-13T14:40:00.367Z,13.1
2017-04-13T14:41:00.392Z,13.03
2017-04-13T14:42:00.418Z,12.95
2017-04-13T14:43:00.448Z,12.96
2017-04-13T14:44:00.575Z,13.09
2017-04-13T14:45:00.510Z,13.17
2017-04-13T14:46:00.524Z,13.28
2017-04-13T14:47:00.571Z,13.51
2017-04-13T14:48:00.598Z,13.62
2017-04-13T14:49:00.735Z,13.6
2017-04-13T14:50:00.673Z,13.51
2017-04-13T14:51:00.705Z,13.5
2017-04-13T14:52:00.714Z,13.45
2017-04-13T14:53:00.756Z,13.35
2017-04-13T14:54:00.793Z,13.24
2017-04-13T14:55:00.841Z,13.21
2017-04-13T14:56:00.872Z,13.11
2017-04-13T14:57:00.892Z,13.09
2017-04-13T14:58:00.916Z,12.96
2017-04-13T14:59:00.956Z,12.91
2017-04-13T15:00:01.016Z,12.83
2017-04-13T15:01:01.031Z,12.86
2017-04-13T15:02:01.054Z,12.84
2017-04-13T15:03:01.097Z,12.76
2017-04-13T15:04:01.113Z,12.83
2017-04-13T15:05:01.156Z,12.98
2017-04-13T15:06:01.185Z,13.1
2017-04-13T15:07:01.248Z,13.16
2017-04-13T15:08:01.253Z,13.35
2017-04-13T15:09:01.279Z,13.5
2017-04-13T15:10:01.313Z,13.47
2017-04-13T15:11:01.333Z,13.37
2017-04-13T15:12:01.379Z,13.16
2017-04-13T15:13:01.409Z,13.01
2017-04-13T15:14:01.425Z,12.83
2017-04-13T15:15:01.478Z,12.78
2017-04-13T15:16:01.507Z,12.7
2017-04-13T15:17:01.543Z,12.63
2017-04-13T15:18:01.554Z,12.69
2017-04-13T15:19:01.602Z,12.63
2017-04-13T15:20:01.638Z,12.69
2017-04-13T15:21:01.661Z,12.77
2017-04-13T15:22:01.692Z,12.89
2017-04-13T15:23:01.740Z,12.98
2017-04-13T15:24:01.758Z,13.06
2017-04-13T15:25:01.895Z,13.13
2017-04-13T15:26:01.815Z,12.98
2017-04-13T15:27:01.910Z,13.06
2017-04-13T15:28:01.893Z,13.02
2017-04-13T15:29:01.919Z,13.11
2017-04-13T15:30:01.954Z,12.94
2017-04-13T15:31:01.988Z,12.84
2017-04-13T15:32:02.066Z,12.76
2017-04-13T15:33:02.060Z,12.65
2017-04-13T15:34:02.078Z,12.52
2017-04-13T15:35:02.104Z,12.45
2017-04-13T15:36:02.144Z,12.44
2017-04-13T15:37:02.172Z,12.28
2017-04-13T15:38:02.243Z,12.36
2017-04-13T15:39:02.288Z,12.28
2017-04-13T15:40:02.263Z,12.25
2017-04-13T15:41:02.299Z,12.04
2017-04-13T15:42:02.333Z,12.15
2017-04-13T15:43:02.371Z,12.15
2017-04-13T15:44:02.402Z,12.16
2017-04-13T15:45:02.427Z,12.05
2017-04-13T15:46:02.464Z,12.13
2017-04-13T15:47:02.497Z,12.11
2017-04-13T15:48:02.527Z,12.08
2017-04-13T15:49:02.561Z,12.22
2017-04-13T15:50:02.585Z,12.31
2017-04-13T15:51:02.626Z,12.34
2017-04-13T15:52:02.653Z,12.37
2017-04-13T15:53:02.682Z,12.48
2017-04-13T15:54:02.715Z,12.59
2017-04-13T15:55:02.750Z,12.59
2017-04-13T15:56:02.781Z,12.62
2017-04-13T15:57:02.816Z,12.69
2017-04-13T15:58:02.844Z,12.63
2017-04-13T15:59:02.882Z,12.69
2017-04-13T16:00:02.908Z,12.61
2017-04-13T16:01:02.956Z,12.59
2017-04-13T16:02:02.978Z,12.59
2017-04-13T16:03:03.003Z,12.61
2017-04-13T16:04:03.046Z,12.45
2017-04-13T16:05:03.279Z,12.36
2017-04-13T16:06:03.104Z,12.25
2017-04-13T16:07:03.123Z,12.13
2017-04-13T16:08:03.165Z,11.98
2017-04-13T16:09:03.197Z,11.98
2017-04-13T16:10:03.228Z,11.97
2017-04-13T16:11:03.253Z,11.84
2017-04-13T16:12:03.289Z,11.86
2017-04-13T16:13:03.319Z,11.84
2017-04-13T16:14:03.348Z,11.79
2017-04-13T16:15:03.381Z,11.71
2017-04-13T16:16:03.426Z,11.66
2017-04-13T16:17:03.452Z,11.76
2017-04-13T16:18:03.479Z,11.78
2017-04-13T16:19:03.511Z,11.88
2017-04-13T16:20:03.542Z,11.88
2017-04-13T16:21:03.577Z,11.84
2017-04-13T16:22:03.605Z,11.85
2017-04-13T16:23:03.640Z,11.85
2017-04-13T16:24:03.707Z,11.94
2017-04-13T16:25:03.703Z,11.89
2017-04-13T16:26:03.761Z,12
2017-04-13T16:27:03.757Z,12.11
2017-04-13T16:28:03.795Z,12.05
2017-04-13T16:29:03.825Z,12.03
2017-04-13T16:30:03.841Z,12.19
2017-04-13T16:31:03.890Z,12.08
2017-04-13T16:32:03.911Z,12.1
2017-04-13T16:33:03.943Z,12.16
2017-04-13T16:34:03.986Z,12.01
2017-04-13T16:35:04.017Z,12.03
2017-04-13T16:36:04.047Z,11.94
2017-04-13T16:37:04.099Z,11.89
2017-04-13T16:38:04.111Z,11.82
2017-04-13T16:39:04.141Z,11.85
2017-04-13T16:40:04.199Z,11.76
2017-04-13T16:41:04.206Z,11.7
2017-04-13T16:42:04.238Z,11.64
2017-04-13T16:43:04.268Z,11.48
2017-04-13T16:44:04.303Z,11.48
2017-04-13T16:45:04.346Z,11.41
2017-04-13T16:46:04.361Z,11.3
2017-04-13T16:47:04.386Z,11.3
2017-04-13T16:48:04.406Z,11.26
2017-04-13T16:49:04.453Z,11.2
2017-04-13T16:50:04.500Z,11.21
2017-04-13T16:51:04.564Z,11.2
2017-04-13T16:52:04.550Z,11.18
2017-04-13T16:53:04.587Z,11.1
2017-04-13T16:54:04.607Z,11.05
2017-04-13T16:55:04.648Z,11.06
2017-04-13T16:56:04.678Z,11.12
2017-04-13T16:57:04.713Z,11.08
2017-04-13T16:58:04.740Z,11
2017-04-13T16:59:04.770Z,11.15
2017-04-13T17:00:04.792Z,11.06
2017-04-13T17:01:04.842Z,11
2017-04-13T17:02:04.873Z,10.97
2017-04-13T17:03:04.930Z,11
2017-04-13T17:04:04.927Z,11
2017-04-13T17:05:04.942Z,10.94
2017-04-13T17:06:04.982Z,10.94
2017-04-13T17:07:05.069Z,10.87
2017-04-13T17:08:05.044Z,10.75
2017-04-13T17:09:05.075Z,10.79
2017-04-13T17:10:05.114Z,10.69
2017-04-13T17:11:05.139Z,10.61
2017-04-13T17:12:05.172Z,10.57
2017-04-13T17:13:05.206Z,10.57
2017-04-13T17:14:05.231Z,10.41
2017-04-13T17:15:05.266Z,10.54
2017-04-13T17:16:05.298Z,10.52
2017-04-13T17:17:05.332Z,10.44
2017-04-13T17:18:05.359Z,10.36
2017-04-13T17:19:05.388Z,10.33
2017-04-13T17:20:05.422Z,10.25
2017-04-13T17:21:05.463Z,10.33
2017-04-13T17:22:05.482Z,10.26
2017-04-13T17:23:05.514Z,10.15
2017-04-13T17:24:05.550Z,10.07
2017-04-13T17:25:05.568Z,10.05
2017-04-13T17:26:05.611Z,10.1
2017-04-13T17:27:05.635Z,9.93
2017-04-13T17:28:05.663Z,9.93
2017-04-13T17:29:05.692Z,9.96
2017-04-13T17:30:05.724Z,9.95
2017-04-13T17:31:05.757Z,9.84
2017-04-13T17:32:05.789Z,9.99
2017-04-13T17:33:05.829Z,9.85
2017-04-13T17:34:05.850Z,9.96
2017-04-13T17:35:05.909Z,9.95
2017-04-13T17:36:05.914Z,9.96
2017-04-13T17:37:05.944Z,9.89
2017-04-13T17:38:05.978Z,9.89
2017-04-13T17:39:06.001Z,9.85
2017-04-13T17:40:06.053Z,9.85
2017-04-13T17:41:06.061Z,9.98
2017-04-13T17:42:06.092Z,9.89
2017-04-13T17:43:06.115Z,9.96
2017-04-13T17:44:06.147Z,9.93
2017-04-13T17:45:06.172Z,9.93
2017-04-13T17:46:06.223Z,9.98
2017-04-13T17:47:06.248Z,9.96
2017-04-13T17:48:06.280Z,10.02
2017-04-13T17:49:06.295Z,10.1
2017-04-13T17:50:06.349Z,10.13
2017-04-13T17:51:06.370Z,10.11
2017-04-13T17:52:06.388Z,10.17
2017-04-13T17:53:06.430Z,10.21
2017-04-13T17:54:06.462Z,10.17
2017-04-13T17:55:06.493Z,10.18
2017-04-13T17:56:06.523Z,10.21
2017-04-13T17:57:06.542Z,10.21
2017-04-13T17:58:06.585Z,10.25
2017-04-13T17:59:06.598Z,10.2
2017-04-13T18:00:06.661Z,10.26
2017-04-13T18:01:06.676Z,10.21
2017-04-13T18:02:06.709Z,10.21
2017-04-13T18:03:06.737Z,10.23
2017-04-13T18:04:06.762Z,10.18
2017-04-13T18:05:06.790Z,10.23
2017-04-13T18:06:06.841Z,10.14
2017-04-13T18:07:06.855Z,10.18
2017-04-13T18:08:06.888Z,10.13
2017-04-13T18:09:06.909Z,10.14
2017-04-13T18:10:07.069Z,10.02
2017-04-13T18:11:06.971Z,10.05
2017-04-13T18:12:06.991Z,10.11
2017-04-13T18:13:07.040Z,10.07
2017-04-13T18:14:07.066Z,10.07
2017-04-13T18:15:07.197Z,9.93
2017-04-13T18:16:07.128Z,9.99
2017-04-13T18:17:07.155Z,9.96
2017-04-13T18:18:07.187Z,9.89
2017-04-13T18:19:07.217Z,9.99
2017-04-13T18:20:07.288Z,9.93
2017-04-13T18:21:07.279Z,9.98
2017-04-13T18:22:07.309Z,9.95
2017-04-13T18:23:07.331Z,9.92
2017-04-13T18:24:07.372Z,9.93
2017-04-13T18:25:07.408Z,9.92
2017-04-13T18:26:07.424Z,9.96
2017-04-13T18:27:07.462Z,9.96
2017-04-13T18:28:07.493Z,9.93
2017-04-13T18:29:07.521Z,9.96
2017-04-13T18:30:07.562Z,9.92
2017-04-13T18:31:07.579Z,9.95
2017-04-13T18:32:07.610Z,9.85
2017-04-13T18:33:07.642Z,9.88
2017-04-13T18:34:07.677Z,9.82
2017-04-13T18:35:07.714Z,9.82
2017-04-13T18:36:07.730Z,9.88
2017-04-13T18:37:07.750Z,9.81
2017-04-13T18:38:07.791Z,9.82
2017-04-13T18:39:07.824Z,9.64
2017-04-13T18:40:07.850Z,9.66
2017-04-13T18:41:07.890Z,9.59
2017-04-13T18:42:07.916Z,9.5
2017-04-13T18:43:07.947Z,9.48
2017-04-13T18:44:07.981Z,9.39
2017-04-13T18:45:07.989Z,9.37
2017-04-13T18:46:08.036Z,9.29
2017-04-13T18:47:08.050Z,9.27
2017-04-13T18:48:08.090Z,9.41
2017-04-13T18:49:08.123Z,9.38
2017-04-13T18:50:08.159Z,9.32
2017-04-13T18:51:08.331Z,9.41
2017-04-13T18:52:08.227Z,9.29
2017-04-13T18:53:08.255Z,9.32
2017-04-13T18:54:08.279Z,9.38
2017-04-13T18:55:08.308Z,9.3
2017-04-13T18:56:08.339Z,9.32
2017-04-13T18:57:08.374Z,9.32
2017-04-13T18:58:08.421Z,9.2
2017-04-13T18:59:08.437Z,9.23
2017-04-13T19:00:08.444Z,9.23
2017-04-13T19:01:08.528Z,9.14
2017-04-13T19:02:08.520Z,9.14
2017-04-13T19:03:08.554Z,9.21
2017-04-13T19:04:08.567Z,9.09
2017-04-13T19:05:08.610Z,9.24
2017-04-13T19:06:08.635Z,9.05
2017-04-13T19:07:08.675Z,9.11
2017-04-13T19:08:08.694Z,9.03
2017-04-13T19:09:08.720Z,9.2
2017-04-13T19:10:08.749Z,9.14
2017-04-13T19:11:08.785Z,9.21
2017-04-13T19:12:08.815Z,9.14
2017-04-13T19:13:08.841Z,9.23
2017-04-13T19:14:08.860Z,9.21
2017-04-13T19:15:08.911Z,9.23
2017-04-13T19:16:08.932Z,9.24
2017-04-13T19:17:08.954Z,9.23
2017-04-13T19:18:08.991Z,9.23
2017-04-13T19:19:09.011Z,9.27
2017-04-13T19:20:09.061Z,9.23
2017-04-13T19:21:09.083Z,9.21
2017-04-13T19:22:09.112Z,9.26
2017-04-13T19:23:09.141Z,9.2
2017-04-13T19:24:09.166Z,9.21
2017-04-13T19:25:09.210Z,9.23
2017-04-13T19:26:09.222Z,9.21
2017-04-13T19:27:09.268Z,9.3
2017-04-13T19:28:09.287Z,9.3
2017-04-13T19:29:09.316Z,9.23
2017-04-13T19:30:09.373Z,9.19
2017-04-13T19:31:09.384Z,9.23
2017-04-13T19:32:09.392Z,9.26
2017-04-13T19:33:09.438Z,9.2
2017-04-13T19:34:09.449Z,9.17
2017-04-13T19:35:09.493Z,9.24
2017-04-13T19:36:09.526Z,9.19
2017-04-13T19:37:09.555Z,9.19
2017-04-13T19:38:09.580Z,9.23
2017-04-13T19:39:09.613Z,9.26
2017-04-13T19:40:09.884Z,9.16
2017-04-13T19:41:09.668Z,9.24
2017-04-13T19:42:09.688Z,9.11
2017-04-13T19:43:09.737Z,9.23
2017-04-13T19:44:09.756Z,9.16
2017-04-13T19:45:09.886Z,9.12
2017-04-13T19:46:09.827Z,9.11
2017-04-13T19:47:09.845Z,9.21
2017-04-13T19:48:09.880Z,9.16
2017-04-13T19:49:09.912Z,9.04
2017-04-13T19:50:10.030Z,9.23
2017-04-13T19:51:09.968Z,9.14
2017-04-13T19:52:09.997Z,9.09
2017-04-13T19:53:10.035Z,9
2017-04-13T19:54:10.059Z,9.11
2017-04-13T19:55:10.090Z,9.03
2017-04-13T19:56:10.123Z,9.05
2017-04-13T19:57:10.138Z,9.01
2017-04-13T19:58:10.180Z,8.98
2017-04-13T19:59:10.207Z,9.03
2017-04-13T20:00:10.251Z,8.94
2017-04-13T20:01:10.278Z,8.9
2017-04-13T20:02:10.287Z,8.92
2017-04-13T20:03:10.338Z,8.85
2017-04-13T20:04:10.358Z,8.89
2017-04-13T20:05:10.393Z,8.85
2017-04-13T20:06:10.418Z,8.94
2017-04-13T20:07:10.445Z,8.92
2017-04-13T20:08:10.482Z,8.95
2017-04-13T20:09:10.503Z,8.92
2017-04-13T20:10:10.536Z,8.9
2017-04-13T20:11:10.558Z,8.86
2017-04-13T20:12:10.604Z,8.92
2017-04-13T20:13:10.624Z,8.87
2017-04-13T20:14:10.654Z,8.86
2017-04-13T20:15:10.669Z,8.94
2017-04-13T20:16:10.703Z,8.92
2017-04-13T20:17:10.744Z,8.87
2017-04-13T20:18:10.771Z,8.92
2017-04-13T20:19:10.789Z,8.86
2017-04-13T20:20:10.824Z,8.74
2017-04-13T20:21:10.866Z,8.8
2017-04-13T20:22:10.890Z,8.74
2017-04-13T20:23:10.926Z,8.64
2017-04-13T20:24:10.949Z,8.62
2017-04-13T20:25:10.967Z,8.67
2017-04-13T20:26:11.127Z,8.61
2017-04-13T20:27:11.028Z,8.61
2017-04-13T20:28:11.065Z,8.61
2017-04-13T20:29:11.150Z,8.58
2017-04-13T20:30:11.126Z,8.58
2017-04-13T20:31:11.269Z,8.54
2017-04-13T20:32:11.187Z,8.54
2017-04-13T20:33:11.222Z,8.58
2017-04-13T20:34:11.246Z,8.68
2017-04-13T20:35:11.268Z,8.6
2017-04-13T20:36:11.561Z,8.58
2017-04-13T20:37:11.329Z,8.6
2017-04-13T20:38:11.364Z,8.69
2017-04-13T20:39:11.391Z,8.6
2017-04-13T20:40:11.417Z,8.76
2017-04-13T20:41:11.457Z,8.72
2017-04-13T20:42:11.485Z,8.71
2017-04-13T20:43:11.510Z,8.71
2017-04-13T20:44:11.540Z,8.74
2017-04-13T20:45:11.570Z,8.72
2017-04-13T20:46:11.599Z,8.79
2017-04-13T20:47:11.628Z,8.77
2017-04-13T20:48:11.678Z,8.72
2017-04-13T20:49:11.679Z,8.74
2017-04-13T20:50:11.718Z,8.72
2017-04-13T20:51:11.751Z,8.77
2017-04-13T20:52:11.780Z,8.69
2017-04-13T20:53:11.805Z,8.71
2017-04-13T20:54:11.818Z,8.76
2017-04-13T20:55:11.869Z,8.74
2017-04-13T20:56:11.893Z,8.72
2017-04-13T20:57:11.923Z,8.76
2017-04-13T20:58:11.939Z,8.77
2017-04-13T20:59:11.976Z,8.61
2017-04-13T21:00:12.014Z,8.62
2017-04-13T21:01:12.040Z,8.62
2017-04-13T21:02:12.077Z,8.58
2017-04-13T21:03:12.102Z,8.57
2017-04-13T21:04:12.130Z,8.62
2017-04-13T21:05:12.307Z,8.53
2017-04-13T21:06:12.176Z,8.52
2017-04-13T21:07:12.208Z,8.64
2017-04-13T21:08:12.245Z,8.61
2017-04-13T21:09:12.275Z,8.47
2017-04-13T21:10:12.415Z,8.61
2017-04-13T21:11:12.338Z,8.52
2017-04-13T21:12:12.346Z,8.64
2017-04-13T21:13:12.400Z,8.6
2017-04-13T21:14:12.409Z,8.62
2017-04-13T21:15:12.452Z,8.67
2017-04-13T21:16:12.482Z,8.61
2017-04-13T21:17:12.513Z,8.58
2017-04-13T21:18:12.527Z,8.6
2017-04-13T21:19:12.565Z,8.53
2017-04-13T21:20:12.585Z,8.53
2017-04-13T21:21:12.631Z,8.53
2017-04-13T21:22:12.660Z,8.61
2017-04-13T21:23:12.688Z,8.57
2017-04-13T21:24:12.716Z,8.54
2017-04-13T21:25:12.748Z,8.57
2017-04-13T21:26:12.774Z,8.49
2017-04-13T21:27:12.804Z,8.52
2017-04-13T21:28:12.838Z,8.6
2017-04-13T21:29:12.861Z,8.52
2017-04-13T21:30:12.886Z,8.54
2017-04-13T21:31:12.972Z,8.47
2017-04-13T21:32:12.944Z,8.5
2017-04-13T21:33:12.986Z,8.49
2017-04-13T21:34:13.017Z,8.49
2017-04-13T21:35:13.032Z,8.5
2017-04-13T21:36:13.068Z,8.54
2017-04-13T21:37:13.096Z,8.5
2017-04-13T21:38:13.126Z,8.53
2017-04-13T21:39:13.154Z,8.47
2017-04-13T21:40:13.196Z,8.52
2017-04-13T21:41:13.231Z,8.47
2017-04-13T21:42:13.252Z,8.44
2017-04-13T21:43:13.260Z,8.34
2017-04-13T21:44:13.294Z,8.34
2017-04-13T21:45:13.326Z,8.35
2017-04-13T21:46:13.351Z,8.22
2017-04-13T21:47:13.393Z,8.1
2017-04-13T21:48:13.420Z,8.14
2017-04-13T21:49:13.448Z,7.98
2017-04-13T21:50:13.469Z,7.91
2017-04-13T21:51:13.660Z,7.8
2017-04-13T21:52:13.548Z,7.73
2017-04-13T21:53:13.609Z,7.67
2017-04-13T21:54:13.595Z,7.54
2017-04-13T21:55:13.621Z,7.56
2017-04-13T21:56:13.706Z,7.54
2017-04-13T21:57:13.737Z,7.45
2017-04-13T21:58:13.721Z,7.41
2017-04-13T21:59:13.736Z,7.49
2017-04-13T22:00:13.762Z,7.49
2017-04-13T22:01:13.809Z,7.4
2017-04-13T22:02:13.840Z,7.39
2017-04-13T22:03:13.859Z,7.4
2017-04-13T22:04:13.887Z,7.45
2017-04-13T22:05:14.068Z,7.39
2017-04-13T22:06:13.946Z,7.44
2017-04-13T22:07:13.974Z,7.48
2017-04-13T22:08:13.999Z,7.34
2017-04-13T22:09:14.032Z,7.44
2017-04-13T22:10:14.197Z,7.33
2017-04-13T22:11:14.096Z,7.33
2017-04-13T22:12:14.117Z,7.36
2017-04-13T22:13:14.152Z,7.39
2017-04-13T22:14:14.179Z,7.27
2017-04-13T22:15:14.206Z,7.27
2017-04-13T22:16:14.241Z,7.18
2017-04-13T22:17:14.254Z,7.12
2017-04-13T22:18:14.289Z,7.12
2017-04-13T22:19:14.318Z,7.08
2017-04-13T22:20:14.350Z,7.16
2017-04-13T22:21:14.385Z,7.03
2017-04-13T22:22:14.410Z,7.03
2017-04-13T22:23:14.437Z,7
2017-04-13T22:24:14.460Z,7.05
2017-04-13T22:25:14.498Z,7.05
2017-04-13T22:26:14.533Z,6.95
2017-04-13T22:27:14.550Z,6.91
2017-04-13T22:28:14.579Z,6.91
2017-04-13T22:29:14.611Z,6.88
2017-04-13T22:30:14.639Z,6.83
2017-04-13T22:31:14.667Z,6.83
2017-04-13T22:32:14.698Z,6.83
2017-04-13T22:33:14.725Z,6.82
2017-04-13T22:34:14.755Z,6.78
2017-04-13T22:35:14.775Z,6.83
2017-04-13T22:36:14.805Z,6.8
2017-04-13T22:37:14.885Z,6.78
2017-04-13T22:38:14.855Z,6.91
2017-04-13T22:39:14.899Z,6.91
2017-04-13T22:40:14.929Z,6.86
2017-04-13T22:41:14.949Z,6.95
2017-04-13T22:42:15.017Z,6.94
2017-04-13T22:43:15.060Z,6.95
2017-04-13T22:44:15.034Z,6.86
2017-04-13T22:45:15.089Z,6.86
2017-04-13T22:46:15.203Z,6.94
2017-04-13T22:47:15.105Z,6.85
2017-04-13T22:48:15.159Z,6.93
2017-04-13T22:49:15.191Z,7.01
2017-04-13T22:50:15.209Z,6.97
2017-04-13T22:51:15.344Z,7
2017-04-13T22:52:15.272Z,6.95
2017-04-13T22:53:15.279Z,7.01
2017-04-13T22:54:15.323Z,7.04
2017-04-13T22:55:15.344Z,7
2017-04-13T22:56:15.473Z,6.95
2017-04-13T22:57:15.413Z,7.03
2017-04-13T22:58:15.438Z,7.05
2017-04-13T22:59:15.471Z,6.95
2017-04-13T23:00:15.502Z,7.01
2017-04-13T23:01:15.529Z,7.03
2017-04-13T23:02:15.551Z,7.03
2017-04-13T23:03:15.584Z,6.86
2017-04-13T23:04:15.618Z,6.91
2017-04-13T23:05:15.630Z,6.72
2017-04-13T23:06:15.668Z,6.72
2017-04-13T23:07:15.700Z,6.7
2017-04-13T23:08:15.721Z,6.6